Terminal Aerodrome Forecast
Issued by NWS

Home | Current Version | Previous Version | Text Only | Print | Product List | Glossary On
Versions: 1 2 3 4 5 6 7 8 9 10 11 12 13 14 15 16 17 18 19 20 21
000
FTUS45 KREV 271700
TAFCXP
TAF
KCXP 271720Z 2718/2818 VRB03KT P6SM SKC
     FM272000 23010G25KT P6SM SCT200
     FM280300 28011G19KT P6SM SCT200
     FM280600 30007KT P6SM SCT200=

USA.gov is the U.S. government's official web portal to all federal, state and local government web resources and services.